Dublin, Ireland

12:48 PM IST on August 28, 2014 (GMT +0100)
Ballygall Dublin | Change Station
CLOSE
Current Station
Personal Weather Station
Location: Glasnevin, DUBLIN
Elevation: 187 ft
Nearby Weather Stations

Elev 187 ft 53.39 °N, 6.28 °W | Updated 7 seconds ago

Partly Cloudy
Partly Cloudy
67.2 °F
Feels Like 67.2 °F
N
3.0
Wind Variable Wind from WSW
Gusts 4.0 mph

Today
High -- | Low -- °F
--% Chance of Precip.
Yesterday
High -- | Low -- °F
Precip. -- in
6:27 AM 8:24 PM
Waxing Crescent, 8% visible
Pressure 29.65 in
Visibility 6.2 miles
Clouds Few 2500 ft
Dew Point 53 °F
Humidity 61%
Rainfall 0.01 in
Snow Depth Not available.
UV 6 out of 12
Pollen Not available.
Air Quality Not available.
Flu Activity Not available.
METAR EIDW 281130Z 21014KT 9999 FEW025 18/10 Q1004 NOSIG

More Conditions Fewer Conditions

Pressure 29.65 in
Visibility 6.2 miles
Clouds Few 2500 ft
Dew Point 53 °F
Humidity 61%
Rainfall 0.01 in
Snow Depth Not available.
UV 6 out of 12
Pollen Not available.
Air Quality Not available.
Flu Activity Not available.
METAR EIDW 281130Z 21014KT 9999 FEW025 18/10 Q1004 NOSIG

More Conditions Fewer Conditions

10-Day Weather Forecast

Almanac

Astronomy

Aug. 28, 2014 Rise Set
Actual Time 6:27 AM IST 8:24 PM IST
Civil Twilight 5:49 AM IST 9:01 PM IST
Nautical Twilight 5:02 AM IST 9:47 PM IST
Astronomical Twilight 4:09 AM IST 10:40 PM IST
Moon 9:35 AM IST 9:08 PM IST
Length of Visible Light 15h 11m
Length of Day
13h 57m
Tomorrow will be 4m 4s shorter.
Waxing Crescent, 8% of the Moon is Illuminated
Today
Waxing Crescent
Sep 2
First Quarter
Sep 8
Full
Sep 15
Last Quarter
Sep 24
New

Yesterday's Extremes

Country Highs Country Lows

Community

WunderPhotos

Upload Photos

1,747,929 photos uploaded!

Nearby

Snow Depth

Not available.

Earthquake Activity

City Distance Mag. Time & Date
No recent earthquake activity has been reported nearby.
Minimum magnitude displayed is 2.5.

Coastal Water Temperatures

Place Temperature
No Stations Reporting

Nearby Weather Stations